createdAt,value
2023-04-03T00:01:59.819Z,18.60
2023-04-03T00:06:59.090Z,18.65
2023-04-03T00:11:59.399Z,18.48
2023-04-03T00:16:58.699Z,18.21
2023-04-03T00:21:57.967Z,18.41
2023-04-03T00:26:56.246Z,18.51
2023-04-03T00:31:55.526Z,18.02
2023-04-03T00:36:54.975Z,17.81
2023-04-03T00:41:55.158Z,17.63
2023-04-03T00:46:55.449Z,17.51
2023-04-03T00:51:53.800Z,17.30
2023-04-03T00:56:52.080Z,17.06
2023-04-03T01:01:51.376Z,17.08
2023-04-03T01:06:51.694Z,16.94
2023-04-03T01:11:50.964Z,16.63
2023-04-03T01:16:49.214Z,16.60
2023-04-03T01:21:48.498Z,16.41
2023-04-03T01:26:47.793Z,16.21
2023-04-03T01:31:47.155Z,16.20
2023-04-03T01:36:47.209Z,15.93
2023-04-03T01:41:45.469Z,15.92
2023-04-03T01:46:43.735Z,15.78
2023-04-03T01:51:44.021Z,15.89
2023-04-03T01:56:43.277Z,15.59
2023-04-03T02:01:42.594Z,15.41
2023-04-03T02:06:42.862Z,15.49
2023-04-03T02:11:41.274Z,15.57
2023-04-03T02:16:41.332Z,15.41
2023-04-03T02:21:39.593Z,15.32
2023-04-03T02:26:38.877Z,15.16
2023-04-03T02:31:39.188Z,15.16
2023-04-03T02:36:37.469Z,14.98
2023-04-03T02:41:36.763Z,14.75
2023-04-03T02:46:36.131Z,14.60
2023-04-03T02:51:36.181Z,14.70
2023-04-03T02:56:34.450Z,14.98
2023-04-03T03:01:33.774Z,15.09
2023-04-03T03:06:34.047Z,15.29
2023-04-03T03:11:32.345Z,15.46
2023-04-03T03:16:31.743Z,15.41
2023-04-03T03:21:30.826Z,15.43
2023-04-03T03:26:29.204Z,15.20
2023-04-03T03:31:29.354Z,15.23
2023-04-03T03:36:28.631Z,15.03
2023-04-03T03:41:27.919Z,14.96
2023-04-03T03:46:27.236Z,14.89
2023-04-03T03:51:26.500Z,14.83
2023-04-03T03:56:26.791Z,14.55
2023-04-03T04:01:25.119Z,14.55
2023-04-03T04:06:24.451Z,14.42
2023-04-03T04:11:22.535Z,14.15
2023-04-03T04:16:23.884Z,14.46
2023-04-03T04:21:21.994Z,14.50
2023-04-03T04:26:21.268Z,14.68
2023-04-03T04:31:24.583Z,14.72
2023-04-03T04:36:21.073Z,14.73
2023-04-03T04:41:19.037Z,14.62
2023-04-03T04:46:20.349Z,14.57
2023-04-03T04:51:17.706Z,14.42
2023-04-03T04:56:17.853Z,14.32
2023-04-03T05:01:15.975Z,14.42
2023-04-03T05:06:15.253Z,13.75
2023-04-03T05:11:14.515Z,13.71
2023-04-03T05:16:13.792Z,13.63
2023-04-03T05:21:14.058Z,13.92
2023-04-03T05:26:13.334Z,14.40
2023-04-03T05:31:12.566Z,14.69
2023-04-03T05:36:10.955Z,15.28
2023-04-03T05:41:08.957Z,15.50
2023-04-03T05:46:10.259Z,15.57
2023-04-03T05:51:09.497Z,15.62
2023-04-03T05:56:08.797Z,15.68
2023-04-03T06:01:08.077Z,15.64
2023-04-03T06:06:07.399Z,15.34
2023-04-03T06:11:05.719Z,15.14
2023-04-03T06:16:04.818Z,15.16
2023-04-03T06:21:05.144Z,14.81
2023-04-03T06:26:04.438Z,14.77
2023-04-03T06:31:02.772Z,14.62
2023-04-03T06:36:02.080Z,14.21
2023-04-03T06:41:01.388Z,14.27
2023-04-03T06:46:00.509Z,14.21
2023-04-03T06:50:59.821Z,14.10
2023-04-03T06:55:59.158Z,13.96
2023-04-03T07:00:59.242Z,13.97
2023-04-03T07:05:57.513Z,13.87
2023-04-03T07:10:56.796Z,13.67
2023-04-03T07:15:58.130Z,13.78
2023-04-03T07:20:55.420Z,13.89
2023-04-03T07:25:54.708Z,14.20
2023-04-03T07:30:54.034Z,14.43
2023-04-03T07:35:52.366Z,14.47
2023-04-03T07:40:53.680Z,14.45
2023-04-03T07:45:52.062Z,14.68
2023-04-03T07:50:51.163Z,14.51
2023-04-03T07:55:50.428Z,14.24
2023-04-03T08:00:49.743Z,14.46
2023-04-03T08:05:49.008Z,14.42
2023-04-03T08:10:48.335Z,14.15
2023-04-03T08:15:47.649Z,14.04
2023-04-03T08:20:47.004Z,13.87
2023-04-03T08:25:46.293Z,14.02
2023-04-03T08:30:45.440Z,14.68
2023-04-03T08:35:44.838Z,14.65
2023-04-03T08:40:45.071Z,15.10
2023-04-03T08:45:45.321Z,15.71
2023-04-03T08:50:42.573Z,16.09
2023-04-03T08:55:42.844Z,15.80
2023-04-03T09:00:41.135Z,15.83
2023-04-03T09:05:40.452Z,15.57
2023-04-03T09:10:39.851Z,15.49
2023-04-03T09:15:39.988Z,15.38
2023-04-03T09:20:38.347Z,15.23
2023-04-03T09:25:36.445Z,14.99
2023-04-03T09:30:39.025Z,14.72
2023-04-03T09:35:47.424Z,14.70
2023-04-03T09:40:35.543Z,14.42
2023-04-03T09:45:34.631Z,14.21
2023-04-03T09:50:33.699Z,14.32
2023-04-03T09:55:33.003Z,14.35
2023-04-03T10:00:32.298Z,14.20
2023-04-03T10:05:32.648Z,14.80
2023-04-03T10:10:30.861Z,15.90
2023-04-03T10:15:30.143Z,16.15
2023-04-03T10:20:30.412Z,16.39
2023-04-03T10:25:28.719Z,16.43
2023-04-03T10:30:28.009Z,15.41
2023-04-03T10:35:28.285Z,16.70
2023-04-03T10:40:27.588Z,16.93
2023-04-03T10:45:25.862Z,16.81
2023-04-03T10:50:25.168Z,17.26
2023-04-03T10:55:24.438Z,16.70
2023-04-03T11:00:23.717Z,16.79
2023-04-03T11:05:22.997Z,17.08
2023-04-03T11:10:22.276Z,16.85
2023-04-03T11:15:21.529Z,16.70
2023-04-03T11:20:22.875Z,17.06
2023-04-03T11:25:21.155Z,16.43
2023-04-03T11:30:19.468Z,16.20
2023-04-03T11:35:18.747Z,16.25
2023-04-03T11:40:18.035Z,15.74
2023-04-03T11:45:17.301Z,15.68
2023-04-03T11:50:16.633Z,15.74
2023-04-03T11:55:16.923Z,14.81
2023-04-03T12:00:16.266Z,16.14
2023-04-03T12:05:14.565Z,15.83
2023-04-03T12:10:18.340Z,14.64
2023-04-03T12:15:13.071Z,15.27
2023-04-03T12:20:13.380Z,15.68
2023-04-03T12:25:10.646Z,15.36
2023-04-03T12:30:10.971Z,14.89
2023-04-03T12:35:10.292Z,15.34
2023-04-03T12:40:09.633Z,15.57
2023-04-03T12:45:08.879Z,15.09
2023-04-03T12:50:08.198Z,15.43
2023-04-03T12:55:08.492Z,15.65
2023-04-03T13:00:06.799Z,15.10
2023-04-03T13:05:05.112Z,16.50
2023-04-03T13:10:05.418Z,15.51
2023-04-03T13:15:05.659Z,15.39
2023-04-03T13:20:03.963Z,16.61
2023-04-03T13:25:05.292Z,16.67
2023-04-03T13:30:02.530Z,16.27
2023-04-03T13:35:11.710Z,15.96
